METAR Data
IDs: Format: Raw Decoded Include TAF

Data at: 1532 UTC 12 Dec 2018

PAGL 121456Z AUTO 31010KT 10SM CLR M22/M24 A2909 RMK AO2 SLP847 T12171239 53009 FZRANO $
PAGL 121356Z AUTO 32006KT 10SM CLR M19/M21 A2907 RMK AO2 SLP842 T11941211 FZRANO $
PAGL 121256Z AUTO 01005KT 10SM CLR M14/M18 A2907 RMK AO2 SLP839 T11441178 FZRANO $
PAGL 121156Z AUTO 02006KT 10SM CLR M17/M19 A2906 RMK AO2 SLP837 T11721189 11128 21200 51012 FZRANO $
PAGL 121056Z AUTO VRB03KT 10SM CLR M14/M16 A2905 RMK AO2 SLP835 T11391156 FZRANO $
PAGL 120956Z AUTO 30003KT 10SM CLR M17/M19 A2904 RMK AO2 SLP830 T11671189 FZRANO $
PAGL 120856Z AUTO 34003KT 10SM CLR M14/M16 A2903 RMK AO2 SLP826 T11441156 410941194 51005 FZRANO $
PAGL 120756Z AUTO 31006KT 10SM CLR M18/M20 A2903 RMK AO2 SLP825 T11781200 FZRANO $
PAGL 120656Z AUTO 32007KT 3SM BR CLR M19/M21 A2902 RMK AO2 SLP824 T11941211 FZRANO $
PAGL 120556Z AUTO 34006KT 10SM CLR M14/M16 A2901 RMK AO2 SLP820 60000 T11441161 11111 21172 51010 FZRANO $
PAGL 120456Z AUTO 33004KT 10SM CLR M13/M15 A2900 RMK AO2 SLP818 T11331150 FZRANO $
PAGL 120356Z AUTO 00000KT 10SM CLR M14/M15 A2900 RMK AO2 SLP816 T11391150 FZRANO $
PAGL 120256Z AUTO 32003KT 10SM CLR M13/M14 A2898 RMK AO2 SNB26E44 SLP810 P0000 60000 T11281139 53003 FZRANO $
PAGL 120156Z AUTO 32004KT 10SM CLR M13/M14 A2897 RMK AO2 SLP808 T11281139 FZRANO $
PAGL 120056Z AUTO 32003KT 10SM CLR M13/M14 A2897 RMK AO2 SLP808 T11281139 FZRANO $
PAGL 112356Z AUTO 32003KT 10SM FEW085 M12/M13 A2897 RMK AO2 SLP807 T11221133 11094 21133 51010 FZRANO $
PAGL 112256Z AUTO 33004KT 10SM OVC085 M12/M13 A2896 RMK AO2 SLP804 T11171128 FZRANO $
PAGL 112156Z AUTO 31006KT 10SM OVC080 M11/M12 A2895 RMK AO2 SLP800 T11111122 FZRANO $
PAGL 112056Z AUTO 29006KT 10SM SCT080 M11/M12 A2894 RMK AO2 SLP797 T11061117 51014 FZRANO $
PAGL 111956Z AUTO 00000KT 10SM BKN080 OVC090 M09/M11 A2893 RMK AO2 SLP794 T10941111 FZRANO $
PAGL 111856Z AUTO 00000KT 10SM FEW120 M10/M12 A2892 RMK AO2 SLP789 T11001117 FZRANO $
PAGL 111756Z AUTO 34005KT 10SM BKN120 M11/M13 A2890 RMK AO2 SLP783 60000 T11111128 11094 21111 53009 FZRANO $
PAGL 111656Z AUTO 28006KT 10SM FEW080 BKN110 M10/M12 A2889 RMK AO2 SLP780 T11001117 FZRANO $
PAGL 111556Z AUTO 32006KT 10SM OVC110 M11/M12 A2888 RMK AO2 SLP776 T11061117 FZRANO $
PAGL 111456Z AUTO 30003KT 10SM OVC110 M10/M11 A2887 RMK AO2 SLP774 60000 T11001111 51005 FZRANO $
PAGL 111356Z AUTO 30005KT 10SM OVC100 M10/M11 A2887 RMK AO2 SNE1259 SLP772 P0000 T11001111 FZRANO $
PAGL 111256Z AUTO 31004KT 9SM -SN OVC100 M10/M12 A2887 RMK AO2 SNB49 SLP773 P0000 T11001117 FZRANO $
PAGL 111156Z AUTO 31005KT 10SM BKN034 OVC075 M11/M12 A2886 RMK AO2 SNE21 SLP769 P0000 60000 T11061117 11094 21106 53003 FZRANO $
PAGL 111056Z AUTO 31007KT 9SM -SN BKN080 OVC100 M10/M11 A2886 RMK AO2 SLP769 P0000 T11001111 FZRANO $
PAGL 111003Z AUTO 31006KT 9SM -SN SCT029 OVC090 M09/M11 A2885 RMK AO2 P0000 FZRANO $
PAGL 110956Z AUTO 32007KT 7SM -SN BKN029 OVC090 M09/M11 A2885 RMK AO2 SLP765 P0000 T10941111 FZRANO $
PAGL 110941Z AUTO 31007KT 4SM -SN BR OVC029 M09/M11 A2885 RMK AO2 P0000 FZRANO $
PAGL 110912Z AUTO 32008KT 2 1/2SM -SN BR OVC027 M09/M11 A2885 RMK AO2 P0000 FZRANO $
PAGL 110856Z AUTO 32009KT 3SM -SN BR OVC027 M09/M11 A2885 RMK AO2 SLP766 P0000 60000 T10941106 410941144 56004 FZRANO $
PAGL 110840Z AUTO 32006KT 3SM -SN BR OVC029 M09/M11 A2885 RMK AO2 P0000 FZRANO $
PAGL 110807Z AUTO 32007KT 2 1/2SM -SN BR BKN027 BKN033 OVC043 M10/M11 A2885 RMK AO2 P0000 FZRANO $
PAGL 110756Z AUTO 32006KT 5SM -SN BR SCT031 BKN039 OVC055 M10/M11 A2885 RMK AO2 SLP767 P0000 T11001111 FZRANO $
PAGL 110656Z AUTO 32006KT 5SM -SN BR OVC042 M11/M12 A2885 RMK AO2 SLP768 P0000 T11061117 FZRANO $
PAGL 110614Z AUTO 30007KT 3SM -SN BR SCT025 OVC037 M11/M12 A2886 RMK AO2 P0000 FZRANO $
PAGL 110556Z AUTO 32007KT 3SM -SN BR OVC025 M11/M12 A2886 RMK AO2 SLP770 P0000 60000 T11061117 11106 21128 58007 FZRANO $
PAGL 110505Z AUTO 33007KT 2 1/2SM -SN BR BKN023 OVC030 M11/M12 A2887 RMK AO2 VIS 2V5 P0000 FZRANO $
PAGL 110456Z AUTO 33007KT 5SM -SN BR FEW023 BKN030 OVC045 M11/M12 A2887 RMK AO2 SLP772 P0000 T11061122 FZRANO $
PAGL 110425Z AUTO 33006KT 4SM -SN BR SCT032 OVC040 M11/M12 A2887 RMK AO2 P0000 FZRANO $
PAGL 110356Z AUTO 28006KT 2 1/2SM -SN BR SCT024 OVC033 M11/M13 A2888 RMK AO2 SNB29 SLP776 P0000 T11111128 FZRANO $
PAGL 110352Z AUTO 28006KT 2 1/2SM -SN BR SCT024 OVC033 M11/M13 A2888 RMK AO2 VIS 2V3 SNB29 P0000 FZRANO $